Time;durP1;ratioP1;P1;durP2;ratioP2;P2;SDS_P1;SDS_P2;PMS_P1;PMS_P2;Temp;Humidity;BMP_temperature;BMP_pressure;BME280_temperature;BME280_humidity;BME280_pressure;Samples;Min_cycle;Max_cycle;Signal;HPM_P1;HPM_P2
2022/08/14 00:01:14;;;;;;;7.28;2.03;;;;;;;27.76;32.55;100871.41;5039494;28;20399;-65
2022/08/14 00:03:39;;;;;;;4.65;2.10;;;;;;;27.72;32.65;100861.97;5039150;28;20029;-65
2022/08/14 00:06:05;;;;;;;3.78;1.80;;;;;;;27.67;32.11;100850.81;5035307;28;20029;-65
2022/08/14 00:08:30;;;;;;;2.80;1.35;;;;;;;27.59;32.18;100848.44;5014955;28;20030;-66
2022/08/14 00:10:56;;;;;;;3.88;1.88;;;;;;;27.59;32.42;100857.53;5037102;28;20904;-66
2022/08/14 00:13:27;;;;;;;3.85;2.60;;;;;;;27.53;32.63;100843.88;5037479;28;20395;-66
2022/08/14 00:15:53;;;;;;;2.30;1.92;;;;;;;27.53;32.74;100849.41;5040676;28;20415;-66
2022/08/14 00:18:21;;;;;;;2.47;1.90;;;;;;;27.47;32.63;100872.41;5042665;28;20033;-66
2022/08/14 00:20:46;;;;;;;5.35;2.03;;;;;;;27.45;32.65;100858.00;5041599;28;20498;-66
2022/08/14 00:23:13;;;;;;;3.15;2.50;;;;;;;27.46;33.05;100859.69;5028533;28;20032;-66
2022/08/14 00:25:39;;;;;;;5.82;2.20;;;;;;;27.49;32.94;100848.22;5014491;28;20032;-65
2022/08/14 00:28:08;;;;;;;5.25;2.30;;;;;;;27.53;32.54;100844.72;5031308;28;20100;-64
2022/08/14 00:30:33;;;;;;;4.15;2.17;;;;;;;27.59;32.41;100838.28;5031427;28;20109;-65
2022/08/14 00:32:59;;;;;;;3.72;2.47;;;;;;;27.64;32.81;100824.63;5014705;28;20168;-65
2022/08/14 00:35:24;;;;;;;2.92;2.10;;;;;;;27.71;32.08;100830.00;5014572;28;20030;-65
2022/08/14 00:37:50;;;;;;;7.60;2.25;;;;;;;27.78;32.33;100827.13;5030997;28;20117;-65
2022/08/14 00:40:17;;;;;;;2.75;2.20;;;;;;;27.83;31.76;100824.50;5031088;28;20057;-66
2022/08/14 00:42:43;;;;;;;3.08;2.28;;;;;;;27.83;32.18;100821.72;5014569;28;20048;-66
2022/08/14 00:45:11;;;;;;;7.07;2.40;;;;;;;27.83;32.54;100827.25;5031071;28;20034;-65
2022/08/14 00:47:37;;;;;;;9.32;2.83;;;;;;;27.81;32.55;100818.38;5031194;28;20025;-65
2022/08/14 00:50:06;;;;;;;3.78;2.60;;;;;;;27.77;32.43;100817.19;5031263;28;20040;-65
2022/08/14 00:52:32;;;;;;;2.55;2.05;;;;;;;27.72;32.47;100809.66;5031091;28;20112;-66
2022/08/14 00:54:58;;;;;;;2.97;2.40;;;;;;;27.67;32.30;100806.78;5014348;28;20029;-66
2022/08/14 00:57:26;;;;;;;5.05;2.28;;;;;;;27.63;32.17;100805.59;5014449;28;20028;-65
2022/08/14 00:59:51;;;;;;;4.20;2.22;;;;;;;27.63;32.22;100800.09;5017138;28;20032;-65
2022/08/14 01:02:23;;;;;;;2.97;2.33;;;;;;;27.56;32.43;100793.88;5034837;28;20021;-64
2022/08/14 01:04:50;;;;;;;3.33;2.58;;;;;;;27.58;32.24;100791.72;5034663;28;20471;-65
2022/08/14 01:07:19;;;;;;;4.10;1.90;;;;;;;27.59;32.21;100787.88;5034703;28;20030;-65
2022/08/14 01:09:46;;;;;;;4.32;2.30;;;;;;;27.63;32.09;100792.69;5034608;28;20510;-65
2022/08/14 01:12:14;;;;;;;2.20;2.00;;;;;;;27.66;32.21;100799.63;5034942;28;20025;-65
2022/08/14 01:14:39;;;;;;;3.90;2.08;;;;;;;27.69;31.68;100799.13;5034201;28;20356;-65
2022/08/14 01:17:05;;;;;;;4.20;2.42;;;;;;;27.71;31.80;100785.97;5045883;28;20040;-65
2022/08/14 01:22:14;;;;;;;4.13;2.63;;;;;;;27.70;31.71;100787.03;5034769;28;20040;-65
2022/08/14 01:24:40;;;;;;;4.10;2.00;;;;;;;27.67;31.37;100787.50;5034536;28;20034;-65
2022/08/14 01:27:06;;;;;;;5.03;2.17;;;;;;;27.61;31.49;100786.56;5017619;28;20046;-65
2022/08/14 01:29:36;;;;;;;2.15;1.95;;;;;;;27.53;31.69;100789.69;5034459;28;20075;-66
2022/08/14 01:32:03;;;;;;;2.85;2.50;;;;;;;27.47;32.05;100790.66;5034458;28;20430;-65
2022/08/14 01:34:31;;;;;;;5.20;2.40;;;;;;;27.38;31.69;100797.59;5035739;28;20498;-65
2022/08/14 01:36:59;;;;;;;3.67;2.50;;;;;;;27.30;31.99;100791.59;5018027;28;20064;-65
2022/08/14 01:39:24;;;;;;;2.22;2.03;;;;;;;27.23;32.01;100777.94;5017701;28;20029;-65
2022/08/14 01:41:59;;;;;;;6.43;2.60;;;;;;;27.17;32.07;100781.66;5017737;28;20549;-65
2022/08/14 01:44:27;;;;;;;3.08;2.30;;;;;;;27.08;32.37;100781.16;5018940;28;20029;-64
2022/08/14 01:46:54;;;;;;;5.70;1.90;;;;;;;27.03;32.63;100783.81;5001814;28;20368;-66
2022/08/14 01:49:20;;;;;;;2.50;2.13;;;;;;;26.94;32.03;100776.97;5017521;28;20479;-66
2022/08/14 01:51:47;;;;;;;3.92;1.88;;;;;;;26.90;32.10;100778.53;5033964;28;20026;-66
2022/08/14 01:54:19;;;;;;;2.88;2.58;;;;;;;26.85;32.23;100775.66;5034008;28;20590;-65
2022/08/14 01:56:44;;;;;;;4.13;2.53;;;;;;;26.79;32.29;100768.38;5001866;28;20045;-64
2022/08/14 01:59:25;;;;;;;2.35;1.85;;;;;;;26.77;32.49;100766.91;5033829;28;20033;-65
2022/08/14 02:01:53;;;;;;;4.03;2.13;;;;;;;26.71;32.99;100776.94;5033882;28;20021;-65
2022/08/14 02:04:23;;;;;;;2.85;2.13;;;;;;;26.69;32.65;100779.06;5033788;28;20030;-66
2022/08/14 02:06:51;;;;;;;5.10;2.78;;;;;;;26.64;32.84;100773.44;5016967;28;20118;-65
2022/08/14 02:09:20;;;;;;;4.75;2.40;;;;;;;26.63;32.98;100781.94;5017340;28;20037;-66
2022/08/14 02:11:45;;;;;;;2.70;2.10;;;;;;;26.57;32.59;100779.06;5032951;28;20021;-65
2022/08/14 02:14:12;;;;;;;3.90;2.28;;;;;;;26.53;32.56;100777.81;5033544;28;20499;-65
2022/08/14 02:16:44;;;;;;;2.28;2.03;;;;;;;26.49;33.13;100775.78;5033449;28;20025;-65
2022/08/14 02:19:14;;;;;;;7.63;3.05;;;;;;;26.43;33.00;100772.06;5033658;28;20071;-66
2022/08/14 02:21:40;;;;;;;4.93;2.92;;;;;;;26.37;33.18;100770.25;5033609;28;20030;-67
2022/08/14 02:24:06;;;;;;;6.30;2.25;;;;;;;26.33;33.17;100771.78;5033364;28;20487;-65
2022/08/14 02:26:36;;;;;;;2.67;2.35;;;;;;;26.26;32.71;100759.22;5033127;28;20081;-66
2022/08/14 02:29:11;;;;;;;4.47;2.58;;;;;;;26.22;33.12;100769.00;5033800;28;20108;-65
2022/08/14 02:31:40;;;;;;;3.83;2.50;;;;;;;26.20;33.13;100768.41;5033341;28;20159;-65
2022/08/14 02:34:17;;;;;;;4.68;2.35;;;;;;;26.18;33.44;100768.63;5033353;28;20029;-65
2022/08/14 02:36:44;;;;;;;6.32;2.60;;;;;;;26.14;32.77;100761.09;5016498;28;20037;-65
2022/08/14 02:39:12;;;;;;;3.53;2.63;;;;;;;26.08;33.22;100764.72;5033098;28;20025;-64
2022/08/14 02:41:38;;;;;;;3.72;2.28;;;;;;;26.03;33.28;100760.78;5033010;28;20479;-66
2022/08/14 02:44:05;;;;;;;5.55;2.40;;;;;;;26.01;33.51;100753.84;5034192;28;20025;-67
2022/08/14 02:46:30;;;;;;;3.45;2.33;;;;;;;25.95;33.61;100757.50;5016477;28;20106;-65
2022/08/14 02:48:56;;;;;;;5.10;2.35;;;;;;;25.92;33.71;100758.81;5016724;28;20052;-65
2022/08/14 02:51:22;;;;;;;3.90;2.65;;;;;;;25.90;33.70;100754.63;5032842;28;20026;-65
2022/08/14 02:53:48;;;;;;;8.25;2.97;;;;;;;25.86;33.98;100743.25;5032854;28;20104;-66
2022/08/14 02:56:15;;;;;;;7.80;2.78;;;;;;;25.82;33.66;100747.56;5032713;28;20116;-65
2022/08/14 02:58:43;;;;;;;5.03;2.45;;;;;;;25.76;33.69;100742.97;5016083;28;20025;-65
2022/08/14 03:01:09;;;;;;;4.55;2.42;;;;;;;25.71;33.78;100740.06;5032756;28;20017;-65
2022/08/14 03:03:35;;;;;;;11.25;2.40;;;;;;;25.68;34.04;100737.81;5032607;28;20488;-66
2022/08/14 03:06:02;;;;;;;7.28;3.05;;;;;;;25.60;33.39;100732.59;5033749;28;20060;-64
2022/08/14 03:08:30;;;;;;;8.63;2.42;;;;;;;25.57;34.08;100738.59;5033035;28;20029;-64
2022/08/14 03:10:57;;;;;;;4.65;2.70;;;;;;;25.54;33.95;100733.56;5000254;28;20025;-65
2022/08/14 03:13:23;;;;;;;4.28;2.13;;;;;;;25.50;33.67;100731.47;5016070;28;20032;-65
2022/08/14 03:15:51;;;;;;;5.32;2.10;;;;;;;25.47;33.80;100730.03;5032455;28;20446;-65
2022/08/14 03:18:16;;;;;;;4.05;2.10;;;;;;;25.45;33.98;100734.88;5015879;28;20025;-65
2022/08/14 03:20:42;;;;;;;2.50;2.20;;;;;;;25.42;34.20;100736.19;5032569;28;20040;-65
2022/08/14 03:23:07;;;;;;;7.38;2.40;;;;;;;25.38;34.47;100729.47;4998590;28;20029;-65
2022/08/14 03:25:33;;;;;;;1.88;1.73;;;;;;;25.38;33.77;100736.84;5032176;28;20037;-65
2022/08/14 03:28:05;;;;;;;6.65;2.22;;;;;;;25.36;34.56;100731.59;5033357;28;20025;-65
2022/08/14 03:30:32;;;;;;;5.78;2.25;;;;;;;25.39;33.99;100735.78;5015705;28;20395;-64
2022/08/14 03:32:57;;;;;;;5.03;2.58;;;;;;;25.36;34.43;100734.34;5015521;28;20364;-65
2022/08/14 03:35:23;;;;;;;19.92;2.92;;;;;;;25.31;33.84;100725.97;5015602;28;20026;-65
2022/08/14 03:37:51;;;;;;;36.78;3.88;;;;;;;25.29;34.55;100730.00;5032058;28;20040;-64
2022/08/14 03:40:19;;;;;;;8.18;2.55;;;;;;;25.23;34.41;100730.91;5032704;28;20087;-65
2022/08/14 03:42:44;;;;;;;14.77;3.33;;;;;;;25.21;34.42;100733.06;5032080;28;20056;-65
2022/08/14 03:45:09;;;;;;;4.47;2.42;;;;;;;25.15;34.29;100729.31;5015853;28;20492;-65
2022/08/14 03:47:39;;;;;;;8.68;2.33;;;;;;;25.11;34.70;100732.72;5032031;28;20033;-64
2022/08/14 03:50:09;;;;;;;2.83;2.28;;;;;;;25.08;34.95;100724.94;5016014;28;20038;-65
2022/08/14 03:52:36;;;;;;;8.63;2.40;;;;;;;25.04;35.06;100732.81;5031863;28;20029;-65
2022/08/14 03:55:02;;;;;;;4.32;2.95;;;;;;;25.01;34.89;100726.91;5032024;28;20029;-65
2022/08/14 03:57:31;;;;;;;4.55;2.30;;;;;;;24.97;34.53;100726.53;5015613;28;20025;-65
2022/08/14 03:59:57;;;;;;;8.35;2.25;;;;;;;24.97;34.92;100728.41;5016171;28;20391;-64
2022/08/14 04:02:23;;;;;;;3.78;2.63;;;;;;;24.94;34.26;100720.66;5015426;28;20025;-65
2022/08/14 04:04:48;;;;;;;5.47;1.98;;;;;;;24.90;34.76;100720.28;5015489;28;20033;-65
2022/08/14 04:07:14;;;;;;;8.75;2.63;;;;;;;24.90;34.96;100720.28;5031700;28;20120;-64
2022/08/14 04:09:39;;;;;;;4.85;2.08;;;;;;;24.87;35.21;100720.72;5015483;28;20381;-65
2022/08/14 04:12:05;;;;;;;2.80;2.35;;;;;;;24.88;34.75;100723.22;5033098;28;20037;-66
2022/08/14 04:14:30;;;;;;;8.73;2.35;;;;;;;24.83;35.03;100714.84;5032038;28;20544;-65
2022/08/14 04:16:56;;;;;;;3.15;2.28;;;;;;;24.83;34.84;100714.84;5032002;28;20435;-65
2022/08/14 04:19:22;;;;;;;14.35;2.00;;;;;;;24.80;34.52;100714.47;5033532;28;20056;-65
2022/08/14 04:21:49;;;;;;;3.70;1.98;;;;;;;24.76;35.36;100714.03;5015523;28;20087;-65
2022/08/14 04:24:16;;;;;;;6.25;2.67;;;;;;;24.74;35.27;100716.16;5031970;28;20022;-64
2022/08/14 04:26:43;;;;;;;3.38;2.42;;;;;;;24.70;35.48;100711.38;5015700;28;20057;-65
2022/08/14 04:29:12;;;;;;;3.35;2.55;;;;;;;24.66;34.99;100708.22;5031761;28;20462;-65
2022/08/14 04:31:38;;;;;;;6.03;2.85;;;;;;;24.63;35.32;100702.34;5015379;28;20026;-64
2022/08/14 04:34:04;;;;;;;7.60;2.67;;;;;;;24.60;35.43;100695.41;5036017;28;20033;-64
2022/08/14 04:36:31;;;;;;;4.65;2.47;;;;;;;24.59;35.26;100685.53;5038663;28;20075;-64
2022/08/14 04:44:24;;;;;;;2.50;2.25;;;;;;;24.60;35.03;100689.94;5038720;28;20040;-65
2022/08/14 04:49:35;;;;;;;4.10;2.30;;;;;;;24.60;35.88;100676.25;5024456;28;20079;-65
2022/08/14 04:52:03;;;;;;;6.55;2.80;;;;;;;24.61;35.79;100677.94;5038224;28;20025;-65
2022/08/14 04:54:29;;;;;;;6.57;2.67;;;;;;;24.60;35.04;100670.75;5021821;28;20447;-65
2022/08/14 04:56:54;;;;;;;4.60;2.45;;;;;;;24.65;35.50;100670.91;5038136;28;20063;-64
2022/08/14 04:59:21;;;;;;;3.28;2.13;;;;;;;24.71;35.55;100667.28;5021305;28;20030;-65
2022/08/14 05:01:47;;;;;;;4.68;2.72;;;;;;;24.78;35.95;100670.81;5021422;28;20463;-65
2022/08/14 05:04:12;;;;;;;10.75;2.45;;;;;;;24.87;35.99;100676.88;5021549;28;20120;-65
2022/08/14 05:06:38;;;;;;;2.95;2.53;;;;;;;24.95;35.78;100668.34;5039053;28;20033;-65
2022/08/14 05:09:04;;;;;;;5.53;2.25;;;;;;;25.05;36.10;100679.63;5021053;28;20022;-64
2022/08/14 05:11:32;;;;;;;3.65;2.10;;;;;;;25.13;35.55;100670.25;5037543;28;20116;-65
2022/08/14 05:13:58;;;;;;;8.18;2.70;;;;;;;25.22;35.68;100671.63;5038823;28;20037;-64
2022/08/14 05:16:28;;;;;;;4.18;2.35;;;;;;;25.32;35.56;100678.25;5037684;28;20029;-64
2022/08/14 05:18:54;;;;;;;4.15;2.53;;;;;;;25.43;35.87;100684.91;5037341;28;20026;-66
2022/08/14 05:21:20;;;;;;;2.45;2.25;;;;;;;25.55;35.88;100684.97;5037527;28;20029;-64
2022/08/14 05:23:46;;;;;;;3.50;2.40;;;;;;;25.66;35.84;100685.03;5021104;28;20025;-66
2022/08/14 05:26:17;;;;;;;5.85;2.47;;;;;;;25.82;35.66;100680.84;5037106;28;20042;-65
2022/08/14 05:28:43;;;;;;;13.50;2.58;;;;;;;25.97;35.97;100683.97;5037255;28;20112;-66
2022/08/14 05:31:10;;;;;;;6.18;2.17;;;;;;;26.14;35.82;100686.94;5020741;28;20025;-66
2022/08/14 05:33:36;;;;;;;5.57;2.95;;;;;;;26.27;35.72;100681.25;5020925;28;20044;-67
2022/08/14 05:36:06;;;;;;;6.85;2.10;;;;;;;26.47;36.09;100679.00;5037237;28;20025;-65
2022/08/14 05:38:37;;;;;;;3.83;2.92;;;;;;;26.63;35.84;100683.81;5037145;28;20029;-67
2022/08/14 05:41:05;;;;;;;5.87;3.63;;;;;;;26.81;35.48;100674.63;5020621;28;20032;-65
2022/08/14 05:43:31;;;;;;;2.70;2.35;;;;;;;26.99;35.18;100675.38;5020631;28;20755;-66
2022/08/14 05:45:57;;;;;;;3.75;2.38;;;;;;;27.19;35.57;100678.56;5034087;28;20032;-64
2022/08/14 05:48:23;;;;;;;2.72;2.30;;;;;;;27.39;35.37;100674.56;5034135;28;20044;-65
2022/08/14 05:50:50;;;;;;;4.28;2.08;;;;;;;27.54;34.68;100664.75;5033921;28;20065;-65
2022/08/14 05:53:16;;;;;;;5.63;2.13;;;;;;;27.70;34.38;100660.38;5033852;28;20025;-65
2022/08/14 05:55:41;;;;;;;2.20;2.00;;;;;;;27.93;34.82;100671.31;5033928;28;20090;-65
2022/08/14 05:58:07;;;;;;;4.38;2.10;;;;;;;28.09;34.98;100659.50;5017484;28;20029;-65
2022/08/14 06:00:36;;;;;;;8.05;2.25;;;;;;;28.23;34.35;100660.03;5033757;28;20025;-65
2022/08/14 06:03:03;;;;;;;5.45;1.77;;;;;;;28.49;34.32;100658.53;5033928;28;20021;-66
2022/08/14 06:05:29;;;;;;;3.17;2.17;;;;;;;28.73;33.64;100657.28;5033986;28;20021;-66
2022/08/14 06:07:54;;;;;;;2.50;2.10;;;;;;;28.97;33.59;100652.44;5033654;28;20029;-65
2022/08/14 06:10:21;;;;;;;2.83;2.10;;;;;;;29.22;33.07;100655.56;5017452;28;20033;-65
2022/08/14 06:12:46;;;;;;;4.00;2.50;;;;;;;29.43;33.27;100650.03;5034761;28;20570;-65
2022/08/14 06:15:11;;;;;;;4.05;2.85;;;;;;;29.63;32.97;100640.31;5017232;28;20052;-65
2022/08/14 06:17:44;;;;;;;10.57;2.58;;;;;;;29.80;32.78;100644.72;5016869;28;20036;-65
2022/08/14 06:20:10;;;;;;;4.22;2.50;;;;;;;29.96;32.70;100646.53;5033526;28;20025;-65
2022/08/14 06:22:35;;;;;;;5.22;2.05;;;;;;;30.16;32.58;100645.06;5033393;28;20040;-66
2022/08/14 06:25:01;;;;;;;5.80;2.67;;;;;;;30.32;31.89;100644.13;5000589;28;20038;-65
2022/08/14 06:27:26;;;;;;;3.60;2.00;;;;;;;30.48;32.59;100635.72;5016789;28;20111;-65
2022/08/14 06:29:51;;;;;;;2.92;2.30;;;;;;;30.65;32.09;100643.00;5033174;28;20048;-65
2022/08/14 06:32:17;;;;;;;5.68;1.77;;;;;;;30.81;31.84;100629.00;5016584;28;20034;-65
2022/08/14 06:34:42;;;;;;;6.10;2.13;;;;;;;30.94;31.65;100633.25;5034525;28;20052;-65
2022/08/14 06:37:08;;;;;;;3.88;2.22;;;;;;;31.07;31.14;100636.38;5033047;28;20032;-65
2022/08/14 06:39:33;;;;;;;5.70;2.17;;;;;;;31.25;31.06;100632.31;5016665;28;20028;-65
2022/08/14 06:41:59;;;;;;;4.22;1.65;;;;;;;31.37;31.14;100630.16;5000272;28;20029;-65
2022/08/14 06:44:24;;;;;;;3.28;2.05;;;;;;;31.53;30.99;100626.38;5034651;28;20605;-65
2022/08/14 06:46:50;;;;;;;2.33;2.05;;;;;;;31.67;30.75;100613.66;5033228;28;20442;-65
2022/08/14 06:49:15;;;;;;;2.53;1.98;;;;;;;31.87;30.24;100623.13;5016359;28;20509;-65
2022/08/14 06:51:45;;;;;;;6.88;2.17;;;;;;;32.05;30.23;100619.88;5034241;28;20096;-65
2022/08/14 06:54:12;;;;;;;4.03;2.55;;;;;;;32.24;30.00;100623.78;5034320;28;20041;-65
2022/08/14 06:56:38;;;;;;;3.72;2.13;;;;;;;32.41;29.83;100624.31;5032853;28;20021;-65
2022/08/14 06:59:04;;;;;;;9.23;2.03;;;;;;;32.61;30.20;100632.63;5016302;28;20063;-65
2022/08/14 07:06:57;;;;;;;2.25;2.00;;;;;;;33.11;29.12;100628.94;5033079;28;20028;-65
2022/08/14 07:09:23;;;;;;;5.30;2.40;;;;;;;33.29;30.00;100620.00;5032650;28;20475;-65
2022/08/14 07:11:48;;;;;;;3.22;1.90;;;;;;;33.45;28.47;100622.72;5032600;28;20025;-65
2022/08/14 07:14:13;;;;;;;3.03;2.25;;;;;;;33.58;29.67;100614.63;5032558;28;20056;-65
2022/08/14 07:16:39;;;;;;;5.60;2.15;;;;;;;33.75;28.33;100622.59;5015769;28;20035;-65
2022/08/14 07:19:04;;;;;;;4.45;2.63;;;;;;;33.86;28.51;100613.91;5015791;28;20414;-64
2022/08/14 07:21:30;;;;;;;2.78;2.05;;;;;;;34.04;28.95;100608.75;5032253;28;20049;-65
2022/08/14 07:23:55;;;;;;;3.13;2.53;;;;;;;34.23;28.58;100607.78;5015935;28;20498;-65
2022/08/14 07:26:20;;;;;;;2.72;1.98;;;;;;;34.48;28.50;100620.63;4999111;28;20136;-66
2022/08/14 07:28:46;;;;;;;2.30;2.10;;;;;;;34.70;28.64;100614.63;5015788;28;20029;-65
2022/08/14 07:31:11;;;;;;;7.82;2.20;;;;;;;34.91;27.92;100602.13;5032065;28;20026;-66
2022/08/14 07:33:44;;;;;;;6.30;2.03;;;;;;;35.13;28.20;100601.63;5032116;28;20022;-65
2022/08/14 07:36:12;;;;;;;5.05;1.98;;;;;;;35.36;27.22;100600.78;5031931;28;20051;-66
2022/08/14 07:38:39;;;;;;;5.88;2.95;;;;;;;35.52;27.10;100599.44;5032235;28;20037;-66
2022/08/14 07:41:06;;;;;;;6.68;2.20;;;;;;;35.68;27.00;100611.25;5015925;28;20419;-66
2022/08/14 07:43:31;;;;;;;6.20;2.40;;;;;;;35.88;27.65;100605.34;5015643;28;20068;-66
2022/08/14 07:45:57;;;;;;;2.72;2.22;;;;;;;36.08;27.43;100611.47;5015582;28;20057;-66
2022/08/14 07:48:22;;;;;;;5.57;2.13;;;;;;;36.28;27.05;100613.09;5033209;28;20395;-66
2022/08/14 07:50:49;;;;;;;2.55;2.00;;;;;;;36.48;26.58;100609.13;5015219;28;20021;-66
2022/08/14 07:53:15;;;;;;;2.10;1.90;;;;;;;36.62;26.43;100607.22;5015647;28;20070;-66
2022/08/14 07:55:41;;;;;;;2.20;2.00;;;;;;;36.77;26.66;100596.59;5015429;28;20029;-66
2022/08/14 07:58:07;;;;;;;2.20;2.00;;;;;;;36.95;26.12;100594.84;5031890;28;20026;-65
2022/08/14 08:00:32;;;;;;;2.28;1.85;;;;;;;37.11;26.25;100590.63;5016067;28;20363;-67
2022/08/14 08:02:58;;;;;;;4.07;2.15;;;;;;;37.16;25.99;100587.72;5016068;28;20032;-65
2022/08/14 08:05:24;;;;;;;2.38;2.20;;;;;;;37.23;25.82;100582.56;5031744;28;20032;-65
2022/08/14 08:07:50;;;;;;;6.32;2.03;;;;;;;37.41;25.71;100593.94;5031417;28;20021;-65
2022/08/14 08:10:31;;;;;;;2.67;1.60;;;;;;;37.58;25.82;100592.16;5014970;28;20030;-66
2022/08/14 08:13:02;;;;;;;2.85;2.10;;;;;;;37.77;25.37;100594.81;5031619;28;20029;-66
2022/08/14 08:15:31;;;;;;;5.47;2.30;;;;;;;37.95;25.03;100593.81;5032628;28;20030;-66
2022/08/14 08:17:57;;;;;;;1.90;1.80;;;;;;;38.16;25.38;100602.56;5032864;28;20108;-66
2022/08/14 08:20:25;;;;;;;3.20;2.30;;;;;;;38.39;24.40;100598.63;5014843;28;20546;-66
2022/08/14 08:22:53;;;;;;;3.08;2.28;;;;;;;38.59;25.09;100602.84;5015324;28;20364;-65
2022/08/14 08:25:18;;;;;;;3.00;2.13;;;;;;;38.75;24.50;100595.72;5015294;28;20029;-66
2022/08/14 08:28:14;;;;;;;2.15;1.95;;;;;;;38.96;24.18;100596.81;5031245;28;20057;-65
2022/08/14 08:30:46;;;;;;;2.55;2.08;;;;;;;39.13;24.39;100605.28;5026650;28;20521;-65
2022/08/14 08:33:12;;;;;;;;;;;;;;;39.31;24.23;100592.97;5015546;28;20030;-66
2022/08/14 08:35:37;;;;;;;3.67;2.10;;;;;;;39.42;23.90;100591.50;5015036;28;19916;-66
2022/08/14 08:38:17;;;;;;;5.10;1.70;;;;;;;39.55;23.78;100596.19;5032528;28;20033;-66
2022/08/14 08:40:44;;;;;;;3.10;2.10;;;;;;;39.68;23.93;100585.97;5031396;28;20463;-66
2022/08/14 08:43:19;;;;;;;1.63;1.52;;;;;;;39.82;24.13;100574.59;5031187;28;20425;-66
2022/08/14 08:45:55;;;;;;;5.43;2.10;;;;;;;39.95;24.34;100579.22;5031280;28;20029;-66
2022/08/14 08:48:22;;;;;;;4.03;2.05;;;;;;;40.07;23.69;100576.59;5014836;28;20022;-66
2022/08/14 08:50:48;;;;;;;2.33;2.13;;;;;;;40.14;23.16;100582.53;5031348;28;20475;-66
2022/08/14 08:53:13;;;;;;;3.17;2.17;;;;;;;40.26;23.07;100582.66;5014600;28;20029;-66
2022/08/14 08:55:41;;;;;;;3.33;2.65;;;;;;;40.39;23.01;100589.25;5031027;28;20037;-66
2022/08/14 08:58:13;;;;;;;5.90;2.15;;;;;;;40.49;23.15;100572.91;5031079;28;20051;-66
2022/08/14 09:00:41;;;;;;;2.50;2.00;;;;;;;40.61;22.60;100573.03;5031053;28;20013;-66
2022/08/14 09:03:11;;;;;;;5.43;2.40;;;;;;;40.72;22.92;100564.22;5031095;28;20376;-66
2022/08/14 09:05:56;;;;;;;2.33;1.75;;;;;;;40.90;22.24;100560.19;5030811;28;20112;-67
2022/08/14 09:08:28;;;;;;;2.55;2.30;;;;;;;41.05;22.52;100566.09;5032310;28;20079;-66
2022/08/14 09:10:53;;;;;;;;;;;;;;;41.22;22.78;100560.34;5031347;28;20025;-66
2022/08/14 09:13:21;;;;;;;2.10;1.85;;;;;;;41.27;22.62;100542.44;5014437;28;20000;-66
2022/08/14 09:15:48;;;;;;;1.83;1.73;;;;;;;41.46;22.26;100551.28;5030889;28;20493;-66
2022/08/14 09:18:16;;;;;;;2.60;2.15;;;;;;;41.55;22.07;100554.84;5030926;28;20476;-66
2022/08/14 09:20:46;;;;;;;3.50;2.08;;;;;;;41.73;22.28;100555.53;5033060;28;20471;-67
2022/08/14 09:23:13;;;;;;;3.25;2.15;;;;;;;41.91;21.93;100557.06;5018305;28;20029;-66
2022/08/14 09:25:41;;;;;;;4.20;1.90;;;;;;;42.07;21.97;100546.81;5034625;28;20435;-67
2022/08/14 09:28:07;;;;;;;2.20;2.00;;;;;;;42.20;21.67;100551.34;5035744;28;20041;-66
2022/08/14 09:30:36;;;;;;;4.45;1.70;;;;;;;42.28;21.59;100543.97;5034605;28;20541;-66
2022/08/14 09:33:01;;;;;;;2.08;1.88;;;;;;;42.41;21.32;100542.81;5035677;28;20017;-66
2022/08/14 09:35:33;;;;;;;3.33;1.95;;;;;;;42.50;21.39;100539.88;5035664;28;20052;-67
2022/08/14 09:38:37;;;;;;;2.38;1.98;;;;;;;42.64;21.36;100535.59;5034224;28;20026;-67
2022/08/14 09:41:12;;;;;;;3.63;2.05;;;;;;;42.79;21.14;100532.09;5034675;28;20025;-67
2022/08/14 09:43:55;;;;;;;3.58;2.10;;;;;;;42.94;21.17;100527.75;5035458;28;20087;-66
2022/08/14 09:46:21;;;;;;;4.93;2.05;;;;;;;43.02;20.73;100517.56;5034299;28;20028;-68
2022/08/14 09:48:57;;;;;;;3.67;1.80;;;;;;;43.11;20.60;100515.44;5034110;28;20398;-67
2022/08/14 09:51:23;;;;;;;3.15;1.90;;;;;;;43.28;20.50;100515.13;5017457;28;20388;-67
2022/08/14 09:54:00;;;;;;;2.28;1.90;;;;;;;43.55;20.73;100520.06;5017597;28;20078;-67
2022/08/14 09:56:25;;;;;;;4.07;2.33;;;;;;;43.91;20.11;100517.13;5017355;28;20447;-67
2022/08/14 09:58:51;;;;;;;3.03;1.90;;;;;;;44.45;20.12;100516.56;5035148;28;20079;-67
2022/08/14 10:01:18;;;;;;;4.00;3.80;;;;;;;45.14;19.20;100498.97;5033698;28;20029;-67
2022/08/14 10:03:59;;;;;;;7.35;2.90;;;;;;;46.03;18.70;100499.72;5033928;28;20021;-67
2022/08/14 10:06:26;;;;;;;2.15;2.05;;;;;;;47.22;17.85;100500.16;5017398;28;20116;-67
2022/08/14 10:09:03;;;;;;;4.50;2.20;;;;;;;48.24;17.10;100500.69;5033542;28;20032;-67
2022/08/14 10:11:35;;;;;;;1.80;1.65;;;;;;;47.96;17.33;100494.66;5033452;28;20028;-67
2022/08/14 10:14:19;;;;;;;;;;;;;;;47.55;17.64;100485.22;5033998;28;20033;-67
2022/08/14 10:16:51;;;;;;;5.00;2.00;;;;;;;47.22;18.16;100488.81;5033552;28;19916;-67
2022/08/14 10:19:18;;;;;;;2.83;2.40;;;;;;;47.05;18.03;100480.81;5033409;28;20117;-67
2022/08/14 10:22:07;;;;;;;4.05;2.05;;;;;;;47.12;17.74;100486.66;5033402;28;20064;-67
2022/08/14 10:24:40;;;;;;;2.17;1.98;;;;;;;47.09;17.90;100473.19;5033339;28;20028;-67
2022/08/14 10:27:22;;;;;;;3.97;1.85;;;;;;;47.14;17.51;100466.38;5033124;28;20099;-67
2022/08/14 10:29:51;;;;;;;1.80;1.70;;;;;;;47.19;17.63;100455.50;5017483;28;20045;-67
2022/08/14 10:32:17;;;;;;;3.30;2.08;;;;;;;47.40;17.26;100459.84;5032608;28;20057;-68
2022/08/14 10:34:42;;;;;;;2.25;2.00;;;;;;;47.52;17.31;100462.47;5033138;28;20057;-68
2022/08/14 10:37:10;;;;;;;3.13;2.00;;;;;;;47.66;17.18;100468.31;5034197;28;20435;-67
2022/08/14 10:39:36;;;;;;;2.22;1.88;;;;;;;47.77;17.13;100461.53;5033047;28;20160;-67
2022/08/14 10:42:07;;;;;;;3.03;1.80;;;;;;;47.59;16.90;100456.84;5032930;28;20028;-67
2022/08/14 10:44:38;;;;;;;1.98;1.48;;;;;;;47.32;16.76;100462.59;5034182;28;20498;-67
2022/08/14 10:47:11;;;;;;;1.85;1.75;;;;;;;47.34;16.58;100460.19;5032789;28;20061;-66
2022/08/14 10:49:46;;;;;;;3.50;1.73;;;;;;;47.58;16.42;100447.50;5032620;28;20022;-66
2022/08/14 10:52:19;;;;;;;2.20;1.80;;;;;;;47.72;16.00;100444.84;5032851;28;20025;-67
2022/08/14 10:54:46;;;;;;;2.88;2.10;;;;;;;47.84;16.06;100440.94;5032813;28;20025;-67
2022/08/14 10:57:25;;;;;;;2.15;1.55;;;;;;;47.96;15.91;100437.81;5032964;28;20392;-67
2022/08/14 10:59:52;;;;;;;2.10;1.90;;;;;;;48.21;16.11;100441.75;5032687;28;20021;-67
2022/08/14 11:02:28;;;;;;;2.17;1.90;;;;;;;48.40;16.00;100435.00;5016169;28;20164;-67
2022/08/14 11:05:13;;;;;;;2.45;2.00;;;;;;;48.66;15.74;100425.47;5033761;28;20049;-67
2022/08/14 11:08:00;;;;;;;4.13;2.88;;;;;;;48.88;15.71;100421.53;5032616;28;20033;-67
2022/08/14 11:10:47;;;;;;;4.50;2.50;;;;;;;49.03;15.62;100423.25;5031867;28;20099;-68
2022/08/14 11:13:30;;;;;;;2.63;2.13;;;;;;;49.02;15.67;100415.97;5028752;28;20069;-67
2022/08/14 11:16:01;;;;;;;2.60;2.03;;;;;;;49.07;15.43;100407.03;5015825;28;20510;-67
2022/08/14 11:18:27;;;;;;;2.93;2.00;;;;;;;49.24;15.47;100406.28;5032354;28;20442;-67
2022/08/14 11:20:54;;;;;;;1.70;1.60;;;;;;;49.37;15.15;100399.03;5033476;28;20021;-68
2022/08/14 11:23:27;;;;;;;1.83;1.58;;;;;;;49.45;15.35;100394.19;5015683;28;20044;-68
2022/08/14 11:25:53;;;;;;;3.95;1.95;;;;;;;49.46;15.40;100396.63;5031992;28;20025;-67
2022/08/14 11:28:22;;;;;;;1.45;1.40;;;;;;;49.50;14.92;100397.44;4999213;28;20032;-67
2022/08/14 11:30:49;;;;;;;2.33;2.13;;;;;;;49.46;15.02;100390.94;5031946;28;20030;-67
2022/08/14 11:33:14;;;;;;;1.85;1.70;;;;;;;49.25;15.14;100390.84;5015458;28;20064;-67
2022/08/14 11:35:42;;;;;;;1.70;1.60;;;;;;;49.19;15.12;100386.75;5015469;28;20025;-67
2022/08/14 11:38:08;;;;;;;1.63;1.52;;;;;;;48.85;15.32;100385.34;5015765;28;20037;-67
2022/08/14 11:40:36;;;;;;;1.73;1.63;;;;;;;48.69;14.94;100376.31;5032033;28;20021;-67
2022/08/14 11:43:06;;;;;;;1.45;1.38;;;;;;;48.88;14.90;100385.38;5031024;28;20038;-67
2022/08/14 11:45:34;;;;;;;2.22;2.00;;;;;;;49.09;14.76;100386.69;5015415;28;20025;-68
2022/08/14 11:48:01;;;;;;;4.05;2.17;;;;;;;49.20;14.79;100381.84;5031568;28;20037;-67